createdAt,value
2022-09-07T00:01:26.130Z,101131.50
2022-09-07T00:03:56.083Z,101127.19
2022-09-07T00:06:23.052Z,101122.84
2022-09-07T00:08:49.456Z,101111.75
2022-09-07T00:11:17.485Z,101112.97
2022-09-07T00:13:45.193Z,101114.97
2022-09-07T00:16:13.225Z,101102.69
2022-09-07T00:18:43.803Z,101098.72
2022-09-07T00:21:12.659Z,101103.09
2022-09-07T00:23:39.870Z,101100.28
2022-09-07T00:26:07.856Z,101095.09
2022-09-07T00:28:34.719Z,101098.69
2022-09-07T00:31:01.263Z,101102.63
2022-09-07T00:33:27.920Z,101098.16
2022-09-07T00:35:54.404Z,101096.91
2022-09-07T00:38:21.202Z,101100.00
2022-09-07T00:40:47.617Z,101108.38
2022-09-07T00:43:16.416Z,101085.56
2022-09-07T00:45:42.968Z,101079.63
2022-09-07T00:48:16.910Z,101074.03
2022-09-07T00:51:06.313Z,101079.91
2022-09-07T00:53:44.923Z,101073.84
2022-09-07T00:56:11.841Z,101081.44
2022-09-07T00:58:39.962Z,101077.03
2022-09-07T01:01:06.809Z,101085.38
2022-09-07T01:03:36.472Z,101069.47
2022-09-07T01:06:09.743Z,101080.56
2022-09-07T01:08:36.253Z,101079.25
2022-09-07T01:11:02.887Z,101087.97
2022-09-07T01:13:29.325Z,101080.03
2022-09-07T01:16:00.456Z,101074.34
2022-09-07T01:18:39.066Z,101075.47
2022-09-07T01:21:05.387Z,101081.81
2022-09-07T01:23:57.557Z,101073.78
2022-09-07T01:26:26.898Z,101071.06
2022-09-07T01:28:59.126Z,101071.25
2022-09-07T01:31:34.809Z,101065.47
2022-09-07T01:34:07.493Z,101062.72
2022-09-07T01:36:37.437Z,101063.31
2022-09-07T01:39:05.437Z,101055.47
2022-09-07T01:41:40.793Z,101058.03
2022-09-07T01:44:10.214Z,101055.44
2022-09-07T01:46:59.928Z,101055.75
2022-09-07T01:49:38.971Z,101062.66
2022-09-07T01:52:12.564Z,101063.47
2022-09-07T01:54:40.911Z,101069.09
2022-09-07T01:57:16.491Z,101075.06
2022-09-07T01:59:45.526Z,101071.16
2022-09-07T02:02:14.783Z,101089.06
2022-09-07T02:04:50.285Z,101075.94
2022-09-07T02:07:24.862Z,101076.44
2022-09-07T02:09:58.302Z,101085.56
2022-09-07T02:12:36.876Z,101079.22
2022-09-07T02:15:06.211Z,101091.50
2022-09-07T02:17:47.711Z,101083.94
2022-09-07T02:20:23.135Z,101087.09
2022-09-07T02:22:53.481Z,101073.19
2022-09-07T02:25:26.122Z,101065.13
2022-09-07T02:27:59.665Z,101058.25
2022-09-07T02:30:26.096Z,101055.06
2022-09-07T02:32:52.573Z,101052.03
2022-09-07T02:35:18.963Z,101040.44
2022-09-07T02:37:45.548Z,101034.75
2022-09-07T02:40:12.722Z,101038.25
2022-09-07T02:42:39.497Z,101039.44
2022-09-07T02:45:07.966Z,101031.50
2022-09-07T02:48:02.254Z,101032.56
2022-09-07T02:50:31.687Z,101031.94
2022-09-07T02:53:10.266Z,101038.63
2022-09-07T02:55:36.592Z,101033.34
2022-09-07T02:58:02.922Z,101023.84
2022-09-07T03:00:31.982Z,101023.38
2022-09-07T03:03:09.615Z,101026.66
2022-09-07T03:05:42.453Z,101014.34
2022-09-07T03:08:11.193Z,101011.66
2022-09-07T03:10:38.645Z,101008.47
2022-09-07T03:13:05.079Z,100998.22
2022-09-07T03:15:31.547Z,101007.75
2022-09-07T03:17:57.968Z,100996.22
2022-09-07T03:20:24.394Z,100996.56
2022-09-07T03:22:51.677Z,100995.84
2022-09-07T03:25:18.538Z,100993.50
2022-09-07T03:27:44.909Z,100996.94
2022-09-07T03:30:11.673Z,100993.44
2022-09-07T03:32:38.945Z,101004.88
2022-09-07T03:35:06.838Z,100997.25
2022-09-07T03:37:35.485Z,100998.56
2022-09-07T03:40:02.046Z,100988.78
2022-09-07T03:42:28.509Z,100992.25
2022-09-07T03:44:54.877Z,100990.75
2022-09-07T03:47:21.324Z,100985.31
2022-09-07T03:49:48.889Z,100991.34
2022-09-07T03:52:15.251Z,100991.38
2022-09-07T03:54:41.663Z,100982.72
2022-09-07T03:57:08.245Z,100979.97
2022-09-07T03:59:35.235Z,100978.00
2022-09-07T04:02:02.249Z,100982.78
2022-09-07T04:04:28.844Z,100979.25
2022-09-07T04:06:55.191Z,100976.47
2022-09-07T04:09:21.671Z,100979.25
2022-09-07T04:11:48.033Z,100982.38
2022-09-07T04:14:14.450Z,100983.06
2022-09-07T04:16:41.034Z,100982.72
2022-09-07T04:19:07.479Z,100976.84
2022-09-07T04:21:34.335Z,100973.13
2022-09-07T04:24:00.718Z,100968.75
2022-09-07T04:26:31.811Z,100968.94
2022-09-07T04:28:58.531Z,100970.44
2022-09-07T04:31:25.228Z,100971.63
2022-09-07T04:33:52.080Z,100960.06
2022-09-07T04:36:19.269Z,100975.03
2022-09-07T04:38:45.861Z,100973.69
2022-09-07T04:41:16.583Z,100966.84
2022-09-07T04:43:43.406Z,100964.88
2022-09-07T04:46:21.766Z,100954.50
2022-09-07T04:48:52.692Z,100959.81
2022-09-07T04:51:19.768Z,100965.16
2022-09-07T04:53:48.114Z,100958.00
2022-09-07T04:56:16.973Z,100961.53
2022-09-07T04:58:43.861Z,100962.75
2022-09-07T05:01:10.725Z,100969.47
2022-09-07T05:03:38.040Z,100969.16
2022-09-07T05:06:04.865Z,100960.72
2022-09-07T05:08:35.394Z,100960.19
2022-09-07T05:11:01.799Z,100961.41
2022-09-07T05:13:29.377Z,100960.78
2022-09-07T05:15:55.916Z,100972.63
2022-09-07T05:18:22.306Z,100963.84
2022-09-07T05:20:48.657Z,100961.44
2022-09-07T05:23:15.058Z,100955.19
2022-09-07T05:25:45.404Z,100947.22
2022-09-07T05:28:15.887Z,100945.72
2022-09-07T05:36:17.797Z,100943.44
2022-09-07T05:38:44.228Z,100948.97
2022-09-07T05:41:15.223Z,100951.22
2022-09-07T05:46:28.972Z,100959.69
2022-09-07T05:48:56.462Z,100960.69
2022-09-07T05:51:22.867Z,100956.34
2022-09-07T05:53:50.551Z,100952.06
2022-09-07T05:56:16.954Z,100951.31
2022-09-07T05:58:47.938Z,100958.50
2022-09-07T06:01:14.794Z,100969.97
2022-09-07T06:03:41.936Z,100972.78
2022-09-07T06:06:09.992Z,100971.66
2022-09-07T06:08:37.413Z,100971.66
2022-09-07T06:11:07.702Z,100967.31
2022-09-07T06:13:34.204Z,100965.31
2022-09-07T06:16:04.994Z,100963.31
2022-09-07T06:18:35.856Z,100963.38
2022-09-07T06:21:06.515Z,100966.97
2022-09-07T06:23:33.287Z,100961.75
2022-09-07T06:26:00.108Z,100963.69
2022-09-07T06:28:30.450Z,100960.91
2022-09-07T06:31:03.924Z,100969.53
2022-09-07T06:33:30.385Z,100965.59
2022-09-07T06:36:00.933Z,100955.41
2022-09-07T06:38:32.009Z,100955.34
2022-09-07T06:43:48.706Z,100955.09
2022-09-07T06:49:02.020Z,100964.22
2022-09-07T06:51:29.541Z,100968.63
2022-09-07T06:56:43.630Z,100963.09
2022-09-07T06:59:10.643Z,100948.78
2022-09-07T07:01:37.324Z,100961.50
2022-09-07T07:04:03.670Z,100957.94
2022-09-07T07:06:37.050Z,100959.97
2022-09-07T07:09:04.689Z,100952.91
2022-09-07T07:11:31.176Z,100943.41
2022-09-07T07:13:57.935Z,100941.88
2022-09-07T07:16:24.560Z,100943.06
2022-09-07T07:18:54.383Z,100939.97
2022-09-07T07:21:20.759Z,100946.31
2022-09-07T07:23:51.100Z,100936.47
2022-09-07T07:26:18.669Z,100938.13
2022-09-07T07:29:02.941Z,100942.09
2022-09-07T07:31:32.564Z,100948.06
2022-09-07T07:33:59.097Z,100946.53
2022-09-07T07:36:26.822Z,100951.28
2022-09-07T07:39:02.051Z,100946.56
2022-09-07T07:44:19.804Z,100955.34
2022-09-07T07:46:50.143Z,100955.34
2022-09-07T07:49:16.704Z,100961.69
2022-09-07T07:54:29.438Z,100974.38
2022-09-07T07:56:55.938Z,100968.44
2022-09-07T07:59:22.348Z,100979.16
2022-09-07T08:01:49.065Z,100972.44
2022-09-07T08:04:15.557Z,100980.00
2022-09-07T08:06:42.531Z,100985.94
2022-09-07T08:09:08.865Z,100984.75
2022-09-07T08:11:35.410Z,100974.09
2022-09-07T08:14:05.805Z,100983.97
2022-09-07T08:16:33.020Z,100982.41
2022-09-07T08:18:59.421Z,100983.19
2022-09-07T08:21:25.702Z,100979.22
2022-09-07T08:23:52.009Z,100973.69
2022-09-07T08:26:18.304Z,100958.66
2022-09-07T08:28:45.522Z,100961.00
2022-09-07T08:31:12.686Z,100956.28
2022-09-07T08:33:39.400Z,100966.59
2022-09-07T08:36:07.665Z,100961.41
2022-09-07T08:38:35.147Z,100968.16
2022-09-07T08:41:02.506Z,100959.44
2022-09-07T08:43:29.188Z,100957.06
2022-09-07T08:46:00.168Z,100953.50
2022-09-07T08:48:32.143Z,100968.56
2022-09-07T08:51:06.696Z,100972.91
2022-09-07T08:53:35.599Z,100978.47
2022-09-07T08:56:04.599Z,100969.75
2022-09-07T08:58:48.785Z,100979.25
2022-09-07T09:01:33.255Z,100982.03
2022-09-07T09:04:17.236Z,100972.09
2022-09-07T09:07:03.175Z,100971.31
2022-09-07T09:09:47.011Z,100973.66
2022-09-07T09:12:16.053Z,100963.75
2022-09-07T09:15:00.791Z,100967.28
2022-09-07T09:17:43.785Z,100964.13
2022-09-07T09:20:10.136Z,100960.13
2022-09-07T09:22:36.509Z,100960.13
2022-09-07T09:25:21.429Z,100950.56
2022-09-07T09:27:48.418Z,100946.22
2022-09-07T09:30:16.633Z,100941.41
2022-09-07T09:32:45.343Z,100929.88
2022-09-07T09:35:11.615Z,100931.44
2022-09-07T09:37:38.974Z,100928.25
2022-09-07T09:40:07.806Z,100915.53
2022-09-07T09:42:34.886Z,100919.50
2022-09-07T09:45:06.178Z,100917.91
2022-09-07T09:47:35.944Z,100918.28
2022-09-07T09:50:07.585Z,100917.06
2022-09-07T09:52:47.683Z,100919.06
2022-09-07T09:55:40.900Z,100912.66
2022-09-07T10:01:30.985Z,100906.28
2022-09-07T10:03:59.591Z,100911.03
2022-09-07T10:06:27.776Z,100905.84
2022-09-07T10:09:01.718Z,100908.25
2022-09-07T10:14:31.190Z,100906.22
2022-09-07T10:16:58.767Z,100899.41
2022-09-07T10:19:35.526Z,100890.69
2022-09-07T10:22:19.524Z,100895.47
2022-09-07T10:24:45.963Z,100892.28
2022-09-07T10:27:27.519Z,100885.50
2022-09-07T10:29:54.176Z,100894.63
2022-09-07T10:32:23.328Z,100889.81
2022-09-07T10:34:49.584Z,100895.38
2022-09-07T10:37:21.964Z,100902.47
2022-09-07T10:40:08.597Z,100894.94
2022-09-07T10:43:20.551Z,100884.19
2022-09-07T10:45:39.764Z,100886.91
2022-09-07T10:48:14.049Z,100893.25
2022-09-07T10:51:05.062Z,100885.31
2022-09-07T10:53:42.163Z,100903.16
2022-09-07T10:56:26.563Z,100895.59
2022-09-07T10:59:18.963Z,100894.38
2022-09-07T11:01:52.927Z,100903.53
2022-09-07T11:04:22.348Z,100899.50
2022-09-07T11:06:50.798Z,100902.28
2022-09-07T11:09:30.377Z,100899.47
2022-09-07T11:12:05.491Z,100902.25
2022-09-07T11:14:44.470Z,100904.66
2022-09-07T11:17:23.380Z,100910.59
2022-09-07T11:19:57.552Z,100914.97
2022-09-07T11:22:29.792Z,100914.53
2022-09-07T11:27:54.206Z,100912.13
2022-09-07T11:30:21.956Z,100921.63
2022-09-07T11:33:03.200Z,100923.59
2022-09-07T11:35:47.271Z,100918.78
2022-09-07T11:38:19.655Z,100906.81
2022-09-07T11:41:09.280Z,100901.66
2022-09-07T11:43:38.096Z,100900.81
2022-09-07T11:46:07.624Z,100912.34
2022-09-07T11:48:43.530Z,100909.25
2022-09-07T11:51:32.928Z,100907.56
2022-09-07T11:54:12.961Z,100909.09
2022-09-07T11:56:45.735Z,100909.06
2022-09-07T11:59:15.005Z,100908.69
2022-09-07T12:01:47.315Z,100918.25
2022-09-07T12:04:34.469Z,100901.16
2022-09-07T12:07:03.751Z,100909.72
2022-09-07T12:09:49.012Z,100907.03
2022-09-07T12:12:38.209Z,100895.81
2022-09-07T12:15:10.507Z,100905.78
2022-09-07T12:17:55.340Z,100904.69
2022-09-07T12:20:26.042Z,100901.00
2022-09-07T12:23:03.688Z,100902.09
2022-09-07T12:25:31.768Z,100890.94
2022-09-07T12:27:58.253Z,100888.69
2022-09-07T12:30:24.526Z,100889.25
2022-09-07T12:32:54.013Z,100888.84
2022-09-07T12:35:26.846Z,100892.47
2022-09-07T12:37:54.017Z,100881.84
2022-09-07T12:40:29.740Z,100885.75
2022-09-07T12:43:14.478Z,100875.03
2022-09-07T12:45:40.847Z,100874.63
2022-09-07T12:48:13.275Z,100871.91
2022-09-07T12:50:42.753Z,100875.00
2022-09-07T12:53:24.043Z,100881.03
2022-09-07T12:56:18.013Z,100877.78
2022-09-07T12:58:56.839Z,100873.72
2022-09-07T13:01:23.187Z,100872.81
2022-09-07T13:04:08.182Z,100867.28
2022-09-07T13:09:40.003Z,100867.47
2022-09-07T13:15:40.740Z,100865.03
2022-09-07T13:18:12.533Z,100865.41
2022-09-07T13:20:41.481Z,100864.56
2022-09-07T13:23:22.277Z,100862.94
2022-09-07T13:25:52.820Z,100866.84
2022-09-07T13:28:25.369Z,100870.03
2022-09-07T13:31:00.081Z,100860.03
2022-09-07T13:33:29.744Z,100852.81
2022-09-07T13:36:00.687Z,100840.47
2022-09-07T13:38:27.799Z,100832.44
2022-09-07T13:40:57.732Z,100836.84
2022-09-07T13:43:24.500Z,100830.88
2022-09-07T13:45:53.706Z,100831.94
2022-09-07T13:48:32.044Z,100819.28
2022-09-07T13:51:10.292Z,100828.31
2022-09-07T13:54:02.899Z,100828.28
2022-09-07T13:56:38.095Z,100837.47
2022-09-07T13:59:25.339Z,100837.06
2022-09-07T14:01:52.052Z,100835.03
2022-09-07T14:04:29.581Z,100835.06
2022-09-07T14:07:03.476Z,100829.16
2022-09-07T14:09:30.053Z,100827.19
2022-09-07T14:11:56.360Z,100812.81
2022-09-07T14:14:24.318Z,100811.25
2022-09-07T14:16:59.751Z,100798.69
2022-09-07T14:19:26.244Z,100803.03
2022-09-07T14:22:00.291Z,100803.41
2022-09-07T14:24:31.594Z,100801.34
2022-09-07T14:26:58.457Z,100802.53
2022-09-07T14:29:36.901Z,100810.09
2022-09-07T14:32:03.934Z,100807.75
2022-09-07T14:34:32.559Z,100815.38
2022-09-07T14:37:01.716Z,100816.16
2022-09-07T14:39:29.844Z,100813.75
2022-09-07T14:41:57.461Z,100815.84
2022-09-07T14:44:27.419Z,100809.59
2022-09-07T14:46:56.821Z,100801.94
2022-09-07T14:49:23.778Z,100802.34
2022-09-07T14:51:50.402Z,100790.44
2022-09-07T14:54:21.556Z,100790.09
2022-09-07T14:57:06.488Z,100791.66
2022-09-07T14:59:37.337Z,100785.19
2022-09-07T15:02:19.265Z,100780.41
2022-09-07T15:04:49.844Z,100783.91
2022-09-07T15:07:28.527Z,100783.97
2022-09-07T15:09:55.007Z,100776.38
2022-09-07T15:12:38.346Z,100771.97
2022-09-07T15:15:25.096Z,100770.81
2022-09-07T15:17:52.742Z,100768.03
2022-09-07T15:20:37.091Z,100769.25
2022-09-07T15:23:09.520Z,100762.06
2022-09-07T15:25:36.273Z,100767.22
2022-09-07T15:28:02.937Z,100765.69
2022-09-07T15:30:29.301Z,100761.72
2022-09-07T15:32:57.309Z,100761.31
2022-09-07T15:35:24.473Z,100755.38
2022-09-07T15:38:59.511Z,100756.94
2022-09-07T15:41:10.560Z,100754.59
2022-09-07T15:43:32.737Z,100754.25
2022-09-07T15:45:59.352Z,100752.69
2022-09-07T15:48:26.245Z,100754.72
2022-09-07T15:51:00.248Z,100742.41
2022-09-07T15:56:13.310Z,100750.13
2022-09-07T15:58:39.606Z,100747.06
2022-09-07T16:03:56.315Z,100749.75
2022-09-07T16:06:23.741Z,100739.16
2022-09-07T16:08:51.351Z,100741.94
2022-09-07T16:11:25.623Z,100740.06
2022-09-07T16:13:56.144Z,100735.38
2022-09-07T16:16:22.961Z,100723.50
2022-09-07T16:18:49.384Z,100725.13
2022-09-07T16:21:16.159Z,100720.72
2022-09-07T16:23:44.715Z,100724.34
2022-09-07T16:26:11.874Z,100717.78
2022-09-07T16:28:40.357Z,100722.00
2022-09-07T16:31:08.739Z,100716.66
2022-09-07T16:33:38.172Z,100719.75
2022-09-07T16:36:09.570Z,100712.19
2022-09-07T16:38:51.396Z,100699.13
2022-09-07T16:41:20.016Z,100697.31
2022-09-07T16:43:46.598Z,100709.19
2022-09-07T16:46:14.397Z,100697.41
2022-09-07T16:48:40.865Z,100705.47
2022-09-07T16:51:07.442Z,100700.25
2022-09-07T16:53:35.360Z,100698.28
2022-09-07T16:56:06.264Z,100702.59
2022-09-07T16:58:37.218Z,100694.66
2022-09-07T17:01:05.494Z,100688.28
2022-09-07T17:03:32.075Z,100687.13
2022-09-07T17:06:02.135Z,100691.44
2022-09-07T17:08:28.577Z,100692.56
2022-09-07T17:10:59.335Z,100696.94
2022-09-07T17:13:25.657Z,100689.66
2022-09-07T17:15:51.992Z,100687.22
2022-09-07T17:18:18.930Z,100682.03
2022-09-07T17:20:58.555Z,100683.56
2022-09-07T17:23:25.346Z,100680.50
2022-09-07T17:25:51.650Z,100688.00
2022-09-07T17:28:17.997Z,100689.56
2022-09-07T17:30:45.106Z,100691.59
2022-09-07T17:33:11.652Z,100688.84
2022-09-07T17:35:37.963Z,100697.63
2022-09-07T17:39:14.442Z,100694.53
2022-09-07T17:40:51.086Z,100697.38
2022-09-07T17:46:07.377Z,100700.72
2022-09-07T17:48:34.442Z,100697.19
2022-09-07T17:51:04.906Z,100693.31
2022-09-07T17:53:31.263Z,100696.19
2022-09-07T17:55:57.620Z,100700.63
2022-09-07T17:58:23.963Z,100704.66
2022-09-07T18:00:51.050Z,100709.44
2022-09-07T18:03:17.464Z,100699.16
2022-09-07T18:05:44.030Z,100701.19
2022-09-07T18:08:11.231Z,100699.63
2022-09-07T18:13:33.711Z,100699.72
2022-09-07T18:16:09.324Z,100708.38
2022-09-07T18:18:35.735Z,100700.91
2022-09-07T18:21:02.063Z,100715.94
2022-09-07T18:23:29.190Z,100703.66
2022-09-07T18:25:56.883Z,100703.31
2022-09-07T18:31:10.863Z,100708.88
2022-09-07T18:33:37.761Z,100709.69
2022-09-07T18:36:05.883Z,100708.09
2022-09-07T18:38:34.372Z,100718.44
2022-09-07T18:41:05.399Z,100705.75
2022-09-07T18:43:32.650Z,100708.91
2022-09-07T18:46:03.624Z,100706.94
2022-09-07T18:48:30.731Z,100694.34
2022-09-07T18:50:57.130Z,100703.41
2022-09-07T18:53:23.661Z,100705.81
2022-09-07T18:55:50.890Z,100702.63
2022-09-07T18:58:17.583Z,100700.16
2022-09-07T19:00:45.038Z,100711.25
2022-09-07T19:03:11.684Z,100710.84
2022-09-07T19:05:53.387Z,100720.75
2022-09-07T19:08:19.733Z,100717.16
2022-09-07T19:10:46.034Z,100716.69
2022-09-07T19:13:12.431Z,100715.09
2022-09-07T19:15:38.795Z,100724.63
2022-09-07T19:18:05.982Z,100721.44
2022-09-07T19:20:33.357Z,100723.00
2022-09-07T19:22:59.899Z,100721.00
2022-09-07T19:25:26.204Z,100719.75
2022-09-07T19:27:53.026Z,100726.50
2022-09-07T19:30:19.448Z,100726.47
2022-09-07T19:32:45.785Z,100720.94
2022-09-07T19:35:12.144Z,100730.00
2022-09-07T19:37:38.477Z,100725.25
2022-09-07T19:40:05.078Z,100714.75
2022-09-07T19:42:31.408Z,100715.97
2022-09-07T19:44:57.871Z,100710.50
2022-09-07T19:47:24.347Z,100716.53
2022-09-07T19:49:52.152Z,100719.72
2022-09-07T19:52:18.468Z,100712.22
2022-09-07T19:54:45.624Z,100707.47
2022-09-07T19:57:11.926Z,100704.75
2022-09-07T19:59:38.234Z,100707.53
2022-09-07T20:02:04.588Z,100708.69
2022-09-07T20:04:30.979Z,100698.00
2022-09-07T20:06:57.546Z,100706.72
2022-09-07T20:09:24.730Z,100696.44
2022-09-07T20:11:51.084Z,100699.22
2022-09-07T20:14:19.027Z,100701.97
2022-09-07T20:16:45.409Z,100695.63
2022-09-07T20:19:14.652Z,100701.56
2022-09-07T20:21:41.842Z,100701.19
2022-09-07T20:24:08.252Z,100693.28
2022-09-07T20:26:34.648Z,100691.69
2022-09-07T20:29:23.745Z,100681.81
2022-09-07T20:31:47.522Z,100679.78
2022-09-07T20:34:14.069Z,100695.66
2022-09-07T20:36:40.432Z,100688.13
2022-09-07T20:39:07.115Z,100686.13
2022-09-07T20:41:34.068Z,100690.50
2022-09-07T20:44:01.333Z,100688.53
2022-09-07T20:46:29.010Z,100689.34
2022-09-07T20:48:55.839Z,100696.03
2022-09-07T20:51:22.351Z,100687.72
2022-09-07T20:53:49.247Z,100696.44
2022-09-07T20:56:19.657Z,100698.00
2022-09-07T20:58:46.943Z,100705.50
2022-09-07T21:01:14.502Z,100705.09
2022-09-07T21:03:48.545Z,100690.78
2022-09-07T21:06:16.099Z,100685.97
2022-09-07T21:08:43.582Z,100685.56
2022-09-07T21:11:18.092Z,100691.09
2022-09-07T21:13:44.458Z,100693.88
2022-09-07T21:16:11.841Z,100695.00
2022-09-07T21:18:38.816Z,100697.78
2022-09-07T21:21:21.127Z,100699.34
2022-09-07T21:23:48.043Z,100688.66
2022-09-07T21:26:14.849Z,100689.84
2022-09-07T21:28:41.197Z,100693.81
2022-09-07T21:31:08.808Z,100684.38
2022-09-07T21:33:35.817Z,100684.72
2022-09-07T21:36:09.526Z,100685.47
2022-09-07T21:38:36.639Z,100679.56
2022-09-07T21:41:13.196Z,100684.00
2022-09-07T21:43:39.803Z,100685.13
2022-09-07T21:46:10.510Z,100676.09
2022-09-07T21:48:37.257Z,100675.75
2022-09-07T21:51:04.140Z,100663.16
2022-09-07T21:53:30.673Z,100669.13
2022-09-07T21:55:58.008Z,100671.09
2022-09-07T21:58:24.917Z,100670.75
2022-09-07T22:00:51.272Z,100676.63
2022-09-07T22:03:17.966Z,100676.63
2022-09-07T22:05:44.343Z,100670.34
2022-09-07T22:08:10.844Z,100666.75
2022-09-07T22:10:37.158Z,100683.75
2022-09-07T22:13:03.450Z,100674.28
2022-09-07T22:15:33.514Z,100677.03
2022-09-07T22:17:59.809Z,100662.41
2022-09-07T22:20:26.129Z,100652.16
2022-09-07T22:22:52.435Z,100650.56
2022-09-07T22:25:18.738Z,100648.59
2022-09-07T22:27:45.160Z,100651.78
2022-09-07T22:30:11.793Z,100652.19
2022-09-07T22:32:38.159Z,100660.47
2022-09-07T22:35:04.641Z,100656.13
2022-09-07T22:37:30.970Z,100652.94
2022-09-07T22:39:57.395Z,100654.50
2022-09-07T22:42:23.754Z,100652.94
2022-09-07T22:44:50.055Z,100658.81
2022-09-07T22:47:16.366Z,100644.63
2022-09-07T22:49:42.686Z,100654.06
2022-09-07T22:52:08.988Z,100664.38
2022-09-07T22:54:35.302Z,100664.00
2022-09-07T22:57:01.593Z,100663.19
2022-09-07T22:59:28.614Z,100656.41
2022-09-07T23:01:54.953Z,100646.53
2022-09-07T23:04:21.418Z,100642.97
2022-09-07T23:06:47.819Z,100640.19
2022-09-07T23:09:15.597Z,100638.16
2022-09-07T23:11:42.425Z,100640.13
2022-09-07T23:14:12.777Z,100638.56
2022-09-07T23:16:39.376Z,100638.97
2022-09-07T23:19:05.796Z,100643.28
2022-09-07T23:21:32.718Z,100629.84
2022-09-07T23:23:59.651Z,100627.88
2022-09-07T23:26:27.650Z,100630.25
2022-09-07T23:28:54.827Z,100622.41
2022-09-07T23:31:21.637Z,100624.81
2022-09-07T23:33:48.327Z,100629.94
2022-09-07T23:36:14.664Z,100618.09
2022-09-07T23:38:41.048Z,100615.38
2022-09-07T23:41:07.376Z,100612.56
2022-09-07T23:43:35.160Z,100606.22
2022-09-07T23:46:01.616Z,100600.75
2022-09-07T23:48:28.342Z,100601.13
2022-09-07T23:50:54.739Z,100595.19
2022-09-07T23:53:21.887Z,100603.06
2022-09-07T23:55:49.026Z,100599.50
2022-09-07T23:58:15.771Z,100599.19
